Time;durP1;ratioP1;P1;durP2;ratioP2;P2;SDS_P1;SDS_P2;PMS_P1;PMS_P2;Temp;Humidity;BMP_temperature;BMP_pressure;BME280_temperature;BME280_humidity;BME280_pressure;Samples;Min_cycle;Max_cycle;Signal;HPM_P1;HPM_P2
2023/07/21 00:00:56;;;;;;;7.13;6.43;;;;;;;;;;5055117;28;20411;-44
2023/07/21 00:03:22;;;;;;;6.30;5.80;;;;;;;;;;5055241;28;21022;-44
2023/07/21 00:05:48;;;;;;;6.60;6.10;;;;;;;;;;5055194;28;20386;-44
2023/07/21 00:08:14;;;;;;;7.43;6.47;;;;;;;;;;5055648;28;20943;-46
2023/07/21 00:10:40;;;;;;;6.70;6.07;;;;;;;;;;5052786;28;20893;-47
2023/07/21 00:13:06;;;;;;;6.70;6.13;;;;;;;;;;5050877;28;20975;-49
2023/07/21 00:15:33;;;;;;;6.73;6.17;;;;;;;;;;5054958;28;20401;-50
2023/07/21 00:17:59;;;;;;;6.93;6.43;;;;;;;;;;5053429;28;20747;-49
2023/07/21 00:20:25;;;;;;;6.57;5.97;;;;;;;;;;5054766;28;20399;-49
2023/07/21 00:22:51;;;;;;;7.10;6.30;;;;;;;;;;5054898;28;20467;-49
2023/07/21 00:25:17;;;;;;;6.20;5.70;;;;;;;;;;5054730;28;20527;-50
2023/07/21 00:27:44;;;;;;;7.27;6.40;;;;;;;;;;5054945;28;20401;-47
2023/07/21 00:30:10;;;;;;;6.77;6.17;;;;;;;;;;5053448;28;20428;-48
2023/07/21 00:32:37;;;;;;;7.43;6.60;;;;;;;;;;5054630;28;20490;-47
2023/07/21 00:35:08;;;;;;;7.67;6.97;;;;;;;;;;5054624;28;20532;-49
2023/07/21 00:37:34;;;;;;;8.50;5.90;;;;;;;;;;5054604;28;20867;-50
2023/07/21 00:40:00;;;;;;;6.83;6.30;;;;;;;;;;5054338;28;20424;-48
2023/07/21 00:42:26;;;;;;;9.23;7.70;;;;;;;;;;5054642;28;20459;-49
2023/07/21 00:44:52;;;;;;;8.10;7.50;;;;;;;;;;5052932;28;20438;-50
2023/07/21 00:47:18;;;;;;;7.60;6.80;;;;;;;;;;5051297;28;20821;-50
2023/07/21 00:49:44;;;;;;;9.53;7.10;;;;;;;;;;5054120;28;20441;-50
2023/07/21 00:52:13;;;;;;;7.93;7.13;;;;;;;;;;5054354;28;20384;-49
2023/07/21 00:54:39;;;;;;;7.00;6.33;;;;;;;;;;5052789;28;20391;-49
2023/07/21 00:57:06;;;;;;;7.77;7.13;;;;;;;;;;5054283;28;20409;-49
2023/07/21 00:59:32;;;;;;;7.43;6.80;;;;;;;;;;5054483;28;20530;-49
2023/07/21 01:01:58;;;;;;;8.23;7.43;;;;;;;;;;5053358;28;20384;-49
2023/07/21 01:04:24;;;;;;;11.60;6.97;;;;;;;;;;5053553;28;20464;-47
2023/07/21 01:06:51;;;;;;;8.30;7.20;;;;;;;;;;5054093;28;20383;-49
2023/07/21 01:09:19;;;;;;;8.23;7.53;;;;;;;;;;5053930;28;20795;-49
2023/07/21 01:11:44;;;;;;;7.23;6.53;;;;;;;;;;5053837;28;20412;-50
2023/07/21 01:14:10;;;;;;;7.70;7.00;;;;;;;;;;5053942;28;20820;-49
2023/07/21 01:16:41;;;;;;;8.53;6.87;;;;;;;;;;5053884;28;20443;-49
2023/07/21 01:19:09;;;;;;;6.87;6.23;;;;;;;;;;5053656;28;20463;-48
2023/07/21 01:21:39;;;;;;;7.53;6.53;;;;;;;;;;5053635;28;20756;-48
2023/07/21 01:24:08;;;;;;;6.67;6.17;;;;;;;;;;5053637;28;20463;-47
2023/07/21 01:26:36;;;;;;;6.87;6.37;;;;;;;;;;5052404;28;20409;-50
2023/07/21 01:29:02;;;;;;;8.67;7.33;;;;;;;;;;5052248;28;20477;-49
2023/07/21 01:31:28;;;;;;;8.47;7.77;;;;;;;;;;5052079;28;20415;-49
2023/07/21 01:33:55;;;;;;;7.60;7.00;;;;;;;;;;5053422;28;20929;-48
2023/07/21 01:36:21;;;;;;;8.40;7.27;;;;;;;;;;5053526;28;20386;-49
2023/07/21 01:38:48;;;;;;;7.93;7.20;;;;;;;;;;5050096;28;20444;-49
2023/07/21 01:41:14;;;;;;;7.40;6.70;;;;;;;;;;5050266;28;20398;-49
2023/07/21 01:43:40;;;;;;;9.47;7.20;;;;;;;;;;5053426;28;20464;-49
2023/07/21 01:46:10;;;;;;;8.87;7.77;;;;;;;;;;5050754;28;20388;-50
2023/07/21 01:48:36;;;;;;;8.60;6.70;;;;;;;;;;5049325;28;20467;-50
2023/07/21 01:51:03;;;;;;;7.80;7.13;;;;;;;;;;5053059;28;20522;-50
2023/07/21 01:53:33;;;;;;;7.93;7.07;;;;;;;;;;5053332;28;20411;-47
2023/07/21 01:55:58;;;;;;;7.63;6.93;;;;;;;;;;5052084;28;20388;-49
2023/07/21 01:58:26;;;;;;;7.33;6.73;;;;;;;;;;5050529;28;20951;-49
2023/07/21 02:00:55;;;;;;;8.60;7.07;;;;;;;;;;5052801;28;20433;-48
2023/07/21 02:03:21;;;;;;;7.53;6.83;;;;;;;;;;5052992;28;20422;-50
2023/07/21 02:05:48;;;;;;;7.70;7.07;;;;;;;;;;5052953;28;20410;-50
2023/07/21 02:08:14;;;;;;;7.30;6.63;;;;;;;;;;5053084;28;20416;-50
2023/07/21 02:10:41;;;;;;;7.20;6.60;;;;;;;;;;5051742;28;20406;-50
2023/07/21 02:13:06;;;;;;;7.33;5.77;;;;;;;;;;5050013;28;20412;-50
2023/07/21 02:15:33;;;;;;;7.00;6.40;;;;;;;;;;5052587;28;20416;-49
2023/07/21 02:17:59;;;;;;;6.90;6.33;;;;;;;;;;5052945;28;20491;-48
2023/07/21 02:20:25;;;;;;;7.33;6.60;;;;;;;;;;5052434;28;20530;-49
2023/07/21 02:22:51;;;;;;;8.43;7.23;;;;;;;;;;5053085;28;20377;-49
2023/07/21 02:25:17;;;;;;;8.03;7.03;;;;;;;;;;5051627;28;20466;-49
2023/07/21 02:27:43;;;;;;;7.80;6.97;;;;;;;;;;5052627;28;20489;-48
2023/07/21 02:30:10;;;;;;;7.10;6.50;;;;;;;;;;5052082;28;20771;-48
2023/07/21 02:32:36;;;;;;;6.53;6.03;;;;;;;;;;5052545;28;20412;-49
2023/07/21 02:35:01;;;;;;;7.43;6.20;;;;;;;;;;5046526;28;20486;-48
2023/07/21 02:37:28;;;;;;;13.97;7.50;;;;;;;;;;5050327;28;20410;-48
2023/07/21 02:39:54;;;;;;;7.20;6.60;;;;;;;;;;5052211;28;20923;-48
2023/07/21 02:42:20;;;;;;;6.63;6.13;;;;;;;;;;5052185;28;20796;-48
2023/07/21 02:44:46;;;;;;;7.10;6.43;;;;;;;;;;5052193;28;20458;-50
2023/07/21 02:47:15;;;;;;;7.33;6.70;;;;;;;;;;5046758;28;20413;-50
2023/07/21 02:49:41;;;;;;;6.97;6.37;;;;;;;;;;5044163;28;20444;-49
2023/07/21 02:52:07;;;;;;;7.90;7.10;;;;;;;;;;5051615;28;20452;-49
2023/07/21 02:54:33;;;;;;;7.50;6.77;;;;;;;;;;5051979;28;20506;-50
2023/07/21 02:56:59;;;;;;;7.20;6.60;;;;;;;;;;5052535;28;20464;-49
2023/07/21 02:59:26;;;;;;;7.57;6.23;;;;;;;;;;5052046;28;20484;-48
2023/07/21 03:01:54;;;;;;;7.80;6.30;;;;;;;;;;5051857;28;20429;-48
2023/07/21 03:04:22;;;;;;;8.00;6.70;;;;;;;;;;5051809;28;20462;-49
2023/07/21 03:06:48;;;;;;;7.80;7.20;;;;;;;;;;5051451;28;20426;-47
2023/07/21 03:09:14;;;;;;;7.73;7.07;;;;;;;;;;5051654;28;20435;-50
2023/07/21 03:11:40;;;;;;;7.67;6.90;;;;;;;;;;5051581;28;20387;-49
2023/07/21 03:14:06;;;;;;;8.47;6.73;;;;;;;;;;5051754;28;20471;-49
2023/07/21 03:16:32;;;;;;;7.27;6.67;;;;;;;;;;5051663;28;20392;-49
2023/07/21 03:18:58;;;;;;;6.80;6.07;;;;;;;;;;5051872;28;20433;-48
2023/07/21 03:21:26;;;;;;;7.90;6.97;;;;;;;;;;5050926;28;20399;-49
2023/07/21 03:23:52;;;;;;;7.00;6.00;;;;;;;;;;5050608;28;20562;-49
2023/07/21 03:26:18;;;;;;;6.97;6.37;;;;;;;;;;5051524;28;20853;-47
2023/07/21 03:28:43;;;;;;;9.37;6.03;;;;;;;;;;5051810;28;20429;-50
2023/07/21 03:31:10;;;;;;;7.27;6.67;;;;;;;;;;5051515;28;20390;-50
2023/07/21 03:33:36;;;;;;;6.50;6.00;;;;;;;;;;5051679;28;20410;-50
2023/07/21 03:36:04;;;;;;;7.93;6.20;;;;;;;;;;5051464;28;20414;-50
2023/07/21 03:38:32;;;;;;;6.80;6.10;;;;;;;;;;5051419;28;20895;-49
2023/07/21 03:41:05;;;;;;;6.80;6.10;;;;;;;;;;5051272;28;20414;-50
2023/07/21 03:43:31;;;;;;;6.37;5.87;;;;;;;;;;5049774;28;20464;-50
2023/07/21 03:46:00;;;;;;;7.23;5.73;;;;;;;;;;5048264;28;20411;-49
2023/07/21 03:48:27;;;;;;;7.40;6.00;;;;;;;;;;5051353;28;20437;-49
2023/07/21 03:50:57;;;;;;;6.57;5.97;;;;;;;;;;5050821;28;20422;-49
2023/07/21 03:53:24;;;;;;;6.93;6.10;;;;;;;;;;5051360;28;20449;-51
2023/07/21 03:55:50;;;;;;;7.90;6.63;;;;;;;;;;5051522;28;20376;-50
2023/07/21 03:58:16;;;;;;;10.33;6.60;;;;;;;;;;5049550;28;20951;-50
2023/07/21 04:00:42;;;;;;;6.70;6.20;;;;;;;;;;5051260;28;20419;-49
2023/07/21 04:03:09;;;;;;;8.10;7.30;;;;;;;;;;5051421;28;20511;-49
2023/07/21 04:05:35;;;;;;;6.93;6.33;;;;;;;;;;5051196;28;20430;-50
2023/07/21 04:08:01;;;;;;;8.93;6.70;;;;;;;;;;5051515;28;20743;-51
2023/07/21 04:10:27;;;;;;;8.60;6.90;;;;;;;;;;5049916;28;20452;-50
2023/07/21 04:12:53;;;;;;;9.73;6.90;;;;;;;;;;5051156;28;20395;-49
2023/07/21 04:15:19;;;;;;;6.90;6.30;;;;;;;;;;5050957;28;20934;-49
2023/07/21 04:17:45;;;;;;;6.73;6.10;;;;;;;;;;5046472;28;20504;-50
2023/07/21 04:20:13;;;;;;;8.40;6.97;;;;;;;;;;5050904;28;20956;-48
2023/07/21 04:22:39;;;;;;;8.57;6.97;;;;;;;;;;5043099;28;20403;-47
2023/07/21 04:25:05;;;;;;;7.77;6.90;;;;;;;;;;5049545;28;20464;-49
2023/07/21 04:27:31;;;;;;;7.20;6.50;;;;;;;;;;5050980;28;20480;-50
2023/07/21 04:29:58;;;;;;;10.53;7.30;;;;;;;;;;5050843;28;20429;-48
2023/07/21 04:32:24;;;;;;;7.23;6.63;;;;;;;;;;5051023;28;20798;-48
2023/07/21 04:34:50;;;;;;;8.60;7.10;;;;;;;;;;5051016;28;20416;-48
2023/07/21 04:37:16;;;;;;;8.23;7.30;;;;;;;;;;5054572;28;20402;-49
2023/07/21 04:39:42;;;;;;;10.93;7.77;;;;;;;;;;5053094;28;20414;-50
2023/07/21 04:42:09;;;;;;;7.73;7.00;;;;;;;;;;5054638;28;20389;-50
2023/07/21 04:44:35;;;;;;;6.93;6.33;;;;;;;;;;5054464;28;20494;-47
2023/07/21 04:47:04;;;;;;;7.57;6.77;;;;;;;;;;5049761;28;20444;-50
2023/07/21 04:49:30;;;;;;;10.93;6.60;;;;;;;;;;5053311;28;20575;-49
2023/07/21 04:51:58;;;;;;;7.97;7.17;;;;;;;;;;5054015;28;20445;-49
2023/07/21 04:54:24;;;;;;;8.20;7.33;;;;;;;;;;5052800;28;20419;-48
2023/07/21 04:56:52;;;;;;;8.70;7.80;;;;;;;;;;5054596;28;20390;-48
2023/07/21 04:59:18;;;;;;;9.23;7.87;;;;;;;;;;5054128;28;20440;-49
2023/07/21 05:01:44;;;;;;;9.87;7.80;;;;;;;;;;5054115;28;20415;-50
2023/07/21 05:04:11;;;;;;;10.47;8.20;;;;;;;;;;5054105;28;20453;-47
2023/07/21 05:06:37;;;;;;;8.37;7.67;;;;;;;;;;5052725;28;20390;-48
2023/07/21 05:09:03;;;;;;;8.17;7.37;;;;;;;;;;5054047;28;20520;-50
2023/07/21 05:11:29;;;;;;;9.00;8.13;;;;;;;;;;5053899;28;20407;-49
2023/07/21 05:13:56;;;;;;;8.43;7.63;;;;;;;;;;5053922;28;20413;-49
2023/07/21 05:16:22;;;;;;;10.00;8.70;;;;;;;;;;5053874;28;20417;-48
2023/07/21 05:18:48;;;;;;;9.13;8.33;;;;;;;;;;5054006;28;20537;-46
2023/07/21 05:21:15;;;;;;;9.37;7.60;;;;;;;;;;5052165;28;20419;-48
2023/07/21 05:23:41;;;;;;;10.33;8.80;;;;;;;;;;5053770;28;20929;-50
2023/07/21 05:26:08;;;;;;;9.73;8.70;;;;;;;;;;5053821;28;20503;-49
2023/07/21 05:28:35;;;;;;;8.80;8.10;;;;;;;;;;5053644;28;20471;-49
2023/07/21 05:31:01;;;;;;;10.13;9.00;;;;;;;;;;5053684;28;20445;-49
2023/07/21 05:33:27;;;;;;;11.47;10.20;;;;;;;;;;5053456;28;20845;-47
2023/07/21 05:35:53;;;;;;;12.73;11.33;;;;;;;;;;5051522;28;20509;-50
2023/07/21 05:38:19;;;;;;;14.70;11.40;;;;;;;;;;5053004;28;20915;-50
2023/07/21 05:40:56;;;;;;;18.70;12.80;;;;;;;;;;5052649;28;20408;-49
2023/07/21 05:43:22;;;;;;;16.70;13.03;;;;;;;;;;5053639;28;20540;-49
2023/07/21 05:45:48;;;;;;;17.93;13.63;;;;;;;;;;5049004;28;20470;-49
2023/07/21 05:48:14;;;;;;;19.10;13.93;;;;;;;;;;5047918;28;20401;-48
2023/07/21 05:50:40;;;;;;;16.87;13.57;;;;;;;;;;5053207;28;20786;-47
2023/07/21 05:53:06;;;;;;;19.13;14.10;;;;;;;;;;5053444;28;20756;-50
2023/07/21 05:55:32;;;;;;;18.90;13.70;;;;;;;;;;5053114;28;20418;-50
2023/07/21 05:57:59;;;;;;;16.60;13.57;;;;;;;;;;5049274;28;20600;-50
2023/07/21 06:00:25;;;;;;;15.73;12.47;;;;;;;;;;5052618;28;20410;-49
2023/07/21 06:02:51;;;;;;;14.27;12.50;;;;;;;;;;5052037;28;20388;-50
2023/07/21 06:05:17;;;;;;;19.17;14.60;;;;;;;;;;5049308;28;20449;-49
2023/07/21 06:07:45;;;;;;;18.30;14.53;;;;;;;;;;5048716;28;20412;-49
2023/07/21 06:10:11;;;;;;;15.20;13.70;;;;;;;;;;5051545;28;20982;-49
2023/07/21 06:12:38;;;;;;;16.03;14.03;;;;;;;;;;5041970;28;20430;-49
2023/07/21 06:15:06;;;;;;;17.97;14.80;;;;;;;;;;5043410;28;20405;-49
2023/07/21 06:17:32;;;;;;;19.90;14.03;;;;;;;;;;5051911;28;20415;-49
2023/07/21 06:19:57;;;;;;;17.97;14.83;;;;;;;;;;5052569;28;20449;-48
2023/07/21 06:22:23;;;;;;;16.23;13.80;;;;;;;;;;5052180;28;20416;-45
2023/07/21 06:24:49;;;;;;;15.63;13.60;;;;;;;;;;5050750;28;20443;-49
2023/07/21 06:27:16;;;;;;;19.33;13.43;;;;;;;;;;5050781;28;20426;-44
2023/07/21 06:29:42;;;;;;;18.10;13.87;;;;;;;;;;5050782;28;20765;-44
2023/07/21 06:32:08;;;;;;;17.80;14.20;;;;;;;;;;5049934;28;20452;-44
2023/07/21 06:34:34;;;;;;;15.10;12.90;;;;;;;;;;5052343;28;20522;-44
2023/07/21 06:37:01;;;;;;;16.83;14.00;;;;;;;;;;5052295;28;20910;-44
2023/07/21 06:39:27;;;;;;;16.43;13.80;;;;;;;;;;5052235;28;20412;-46
2023/07/21 06:41:53;;;;;;;17.83;14.40;;;;;;;;;;5052651;28;20420;-45
2023/07/21 06:44:20;;;;;;;20.57;16.23;;;;;;;;;;5051047;28;20504;-47
2023/07/21 06:46:47;;;;;;;19.27;15.80;;;;;;;;;;5052329;28;20426;-45
2023/07/21 06:49:14;;;;;;;17.07;14.77;;;;;;;;;;5052006;28;20403;-44
2023/07/21 06:51:40;;;;;;;17.93;15.07;;;;;;;;;;5051938;28;20417;-46
2023/07/21 06:54:08;;;;;;;17.00;15.10;;;;;;;;;;5046247;28;20391;-50
2023/07/21 06:56:34;;;;;;;19.30;15.27;;;;;;;;;;5052049;28;20498;-44
2023/07/21 06:59:00;;;;;;;18.83;15.50;;;;;;;;;;5051042;28;20519;-44
2023/07/21 07:01:26;;;;;;;17.37;13.80;;;;;;;;;;5051960;28;20436;-44
2023/07/21 07:03:52;;;;;;;17.60;13.90;;;;;;;;;;5050476;28;20455;-44
2023/07/21 07:06:18;;;;;;;20.50;14.30;;;;;;;;;;5049457;28;20886;-44
2023/07/21 07:08:44;;;;;;;16.37;14.57;;;;;;;;;;5052110;28;20399;-45
2023/07/21 07:11:11;;;;;;;17.07;14.53;;;;;;;;;;5051542;28;20424;-44
2023/07/21 07:13:37;;;;;;;17.57;13.70;;;;;;;;;;5044587;28;20393;-45
2023/07/21 07:16:04;;;;;;;16.80;14.20;;;;;;;;;;5051784;28;20468;-44
2023/07/21 07:18:30;;;;;;;21.33;14.93;;;;;;;;;;5051779;28;20466;-45
2023/07/21 07:20:59;;;;;;;20.23;13.30;;;;;;;;;;5051653;28;20458;-44
2023/07/21 07:23:25;;;;;;;16.70;13.70;;;;;;;;;;5052012;28;20412;-44
2023/07/21 07:25:54;;;;;;;17.80;13.30;;;;;;;;;;5051789;28;20374;-46
2023/07/21 07:28:21;;;;;;;15.60;14.00;;;;;;;;;;5050827;28;20384;-44
2023/07/21 07:30:47;;;;;;;19.70;13.30;;;;;;;;;;5051469;28;20412;-44
2023/07/21 07:33:16;;;;;;;15.27;13.67;;;;;;;;;;5050472;28;20398;-44
2023/07/21 07:35:49;;;;;;;14.63;11.60;;;;;;;;;;5051554;28;20424;-44
2023/07/21 07:38:17;;;;;;;14.73;12.50;;;;;;;;;;5050990;28;20419;-44
2023/07/21 07:40:43;;;;;;;13.43;10.40;;;;;;;;;;5050794;28;20472;-45
2023/07/21 07:43:10;;;;;;;12.10;10.90;;;;;;;;;;5051570;28;20422;-44
2023/07/21 07:45:38;;;;;;;10.63;9.63;;;;;;;;;;5051435;28;20453;-44
2023/07/21 07:48:05;;;;;;;10.50;9.50;;;;;;;;;;5047522;28;20385;-44
2023/07/21 07:50:30;;;;;;;9.93;8.93;;;;;;;;;;5048162;28;20445;-44
2023/07/21 07:52:59;;;;;;;10.60;8.60;;;;;;;;;;5033616;28;20386;-45
2023/07/21 07:55:25;;;;;;;13.70;8.73;;;;;;;;;;5045919;28;20917;-44
2023/07/21 07:57:51;;;;;;;9.37;8.47;;;;;;;;;;5051383;28;20898;-44
2023/07/21 08:00:17;;;;;;;9.03;8.10;;;;;;;;;;5047043;28;20893;-44
2023/07/21 08:02:43;;;;;;;8.83;8.00;;;;;;;;;;5049595;28;20374;-44
2023/07/21 08:05:10;;;;;;;8.73;7.30;;;;;;;;;;5046529;28;20454;-45
2023/07/21 08:07:36;;;;;;;9.47;8.57;;;;;;;;;;5050547;28;21012;-44
2023/07/21 08:10:04;;;;;;;14.77;11.53;;;;;;;;;;5050685;28;20815;-44
2023/07/21 08:12:30;;;;;;;11.47;10.30;;;;;;;;;;5054080;28;20394;-44
2023/07/21 08:14:56;;;;;;;9.47;8.50;;;;;;;;;;5051182;28;20408;-44
2023/07/21 08:17:22;;;;;;;6.80;6.20;;;;;;;;;;5054905;28;20402;-46
2023/07/21 08:19:48;;;;;;;8.50;7.70;;;;;;;;;;5054834;28;20468;-48
2023/07/21 08:22:15;;;;;;;7.87;7.03;;;;;;;;;;5054362;28;20891;-47
2023/07/21 08:24:41;;;;;;;7.20;6.53;;;;;;;;;;5054925;28;21022;-45
2023/07/21 08:27:08;;;;;;;6.93;6.37;;;;;;;;;;5054977;28;20400;-45
2023/07/21 08:29:34;;;;;;;7.80;7.17;;;;;;;;;;5054669;28;20507;-48
2023/07/21 08:32:01;;;;;;;6.87;6.27;;;;;;;;;;5054719;28;20885;-45
2023/07/21 08:34:27;;;;;;;5.13;4.73;;;;;;;;;;5054545;28;20413;-44
2023/07/21 08:36:53;;;;;;;5.07;4.67;;;;;;;;;;5054386;28;20474;-44
2023/07/21 08:39:19;;;;;;;4.90;4.50;;;;;;;;;;5054477;28;20441;-44
2023/07/21 08:41:49;;;;;;;4.90;3.90;;;;;;;;;;5054390;28;20415;-47
2023/07/21 08:44:17;;;;;;;5.33;4.80;;;;;;;;;;5054694;28;20449;-44
2023/07/21 08:46:43;;;;;;;5.20;4.80;;;;;;;;;;5054469;28;20454;-44
2023/07/21 08:49:09;;;;;;;4.47;3.97;;;;;;;;;;5047178;28;20426;-45
2023/07/21 08:51:36;;;;;;;4.10;3.40;;;;;;;;;;5054280;28;20405;-46
2023/07/21 08:54:02;;;;;;;3.27;2.97;;;;;;;;;;5054424;28;20413;-44
2023/07/21 08:56:28;;;;;;;4.40;4.10;;;;;;;;;;5054395;28;20425;-45
2023/07/21 08:58:54;;;;;;;3.37;3.07;;;;;;;;;;5051485;28;20434;-45
2023/07/21 09:01:20;;;;;;;3.20;3.00;;;;;;;;;;5051264;28;20898;-45
2023/07/21 09:03:47;;;;;;;4.70;3.50;;;;;;;;;;5053003;28;20830;-46
2023/07/21 09:06:14;;;;;;;3.20;2.90;;;;;;;;;;5053720;28;20754;-47
2023/07/21 09:08:40;;;;;;;3.10;2.60;;;;;;;;;;5053663;28;20429;-45
2023/07/21 09:11:07;;;;;;;4.40;3.20;;;;;;;;;;5054048;28;20421;-44
2023/07/21 09:13:33;;;;;;;3.80;3.50;;;;;;;;;;5054039;28;20428;-45
2023/07/21 09:16:00;;;;;;;4.53;4.20;;;;;;;;;;5054051;28;20901;-45
2023/07/21 09:18:26;;;;;;;4.50;4.17;;;;;;;;;;5053499;28;20468;-45
2023/07/21 09:20:52;;;;;;;3.17;2.87;;;;;;;;;;5053877;28;20414;-44
2023/07/21 09:23:19;;;;;;;2.83;2.57;;;;;;;;;;5053915;28;20959;-44
2023/07/21 09:25:48;;;;;;;3.43;3.13;;;;;;;;;;5053760;28;20548;-44
2023/07/21 09:28:14;;;;;;;4.37;3.27;;;;;;;;;;5053739;28;20413;-45
2023/07/21 09:30:51;;;;;;;3.73;2.73;;;;;;;;;;5053576;28;20436;-44
2023/07/21 09:33:22;;;;;;;4.20;3.90;;;;;;;;;;5053337;28;20405;-44
2023/07/21 09:35:48;;;;;;;4.03;3.30;;;;;;;;;;5053674;28;20417;-45
2023/07/21 09:38:14;;;;;;;7.00;3.97;;;;;;;;;;5053598;28;20429;-45
2023/07/21 09:40:43;;;;;;;5.23;4.77;;;;;;;;;;5053350;28;20409;-44
2023/07/21 09:43:12;;;;;;;5.57;5.07;;;;;;;;;;5053675;28;20901;-46
2023/07/21 09:45:39;;;;;;;5.63;5.23;;;;;;;;;;5052287;28;20457;-44
2023/07/21 09:48:05;;;;;;;4.80;4.40;;;;;;;;;;5053508;28;20470;-44
2023/07/21 09:50:31;;;;;;;4.50;4.10;;;;;;;;;;5052940;28;20525;-44
2023/07/21 09:52:58;;;;;;;4.40;4.00;;;;;;;;;;5053808;28;20506;-45
2023/07/21 09:55:24;;;;;;;4.73;4.43;;;;;;;;;;5045284;28;20504;-44
2023/07/21 09:57:50;;;;;;;3.47;3.27;;;;;;;;;;5049342;28;20413;-48
2023/07/21 10:00:17;;;;;;;3.70;3.40;;;;;;;;;;5049653;28;20425;-47
2023/07/21 10:02:47;;;;;;;3.47;3.27;;;;;;;;;;5053148;28;20444;-45
2023/07/21 10:05:14;;;;;;;5.20;4.70;;;;;;;;;;5052947;28;20564;-45
2023/07/21 10:07:42;;;;;;;3.83;3.63;;;;;;;;;;5049735;28;20439;-45
2023/07/21 10:10:08;;;;;;;3.30;3.10;;;;;;;;;;5052748;28;20945;-48
2023/07/21 10:12:50;;;;;;;4.20;3.90;;;;;;;;;;5049317;28;20413;-45
2023/07/21 10:15:21;;;;;;;6.90;5.20;;;;;;;;;;5049885;28;20913;-46
2023/07/21 10:18:14;;;;;;;4.70;4.40;;;;;;;;;;5052883;28;20441;-44
2023/07/21 10:20:40;;;;;;;6.07;5.67;;;;;;;;;;5044468;28;20421;-46
2023/07/21 10:23:07;;;;;;;5.50;5.00;;;;;;;;;;5050837;28;20854;-47
2023/07/21 10:25:48;;;;;;;5.77;5.30;;;;;;;;;;5047767;28;20512;-48
2023/07/21 10:28:14;;;;;;;5.30;4.90;;;;;;;;;;5044043;28;20891;-44
2023/07/21 10:30:43;;;;;;;6.20;4.30;;;;;;;;;;5052439;28;20392;-44
2023/07/21 10:33:13;;;;;;;5.10;3.90;;;;;;;;;;5052005;28;20405;-48
2023/07/21 10:35:40;;;;;;;3.90;3.60;;;;;;;;;;5052466;28;20431;-45
2023/07/21 10:38:12;;;;;;;5.63;5.23;;;;;;;;;;5052487;28;20466;-50
2023/07/21 10:40:38;;;;;;;9.87;5.30;;;;;;;;;;5052197;28;20544;-45
2023/07/21 10:43:04;;;;;;;6.73;5.17;;;;;;;;;;5052484;28;20417;-44
2023/07/21 10:45:30;;;;;;;5.67;4.83;;;;;;;;;;5052262;28;20518;-44
2023/07/21 10:47:56;;;;;;;5.10;4.70;;;;;;;;;;5052322;28;20401;-45
2023/07/21 10:50:22;;;;;;;5.10;4.70;;;;;;;;;;5051972;28;20437;-46
2023/07/21 10:52:48;;;;;;;5.30;4.83;;;;;;;;;;5052276;28;20499;-44
2023/07/21 10:55:20;;;;;;;6.20;5.70;;;;;;;;;;5049278;28;20424;-46
2023/07/21 10:57:46;;;;;;;5.70;5.30;;;;;;;;;;5041078;28;20905;-45
2023/07/21 11:00:13;;;;;;;7.23;6.73;;;;;;;;;;5039765;28;20434;-52
2023/07/21 11:02:39;;;;;;;5.40;5.10;;;;;;;;;;5051998;28;20912;-45
2023/07/21 11:05:05;;;;;;;5.33;4.93;;;;;;;;;;5046816;28;20474;-45
2023/07/21 11:07:31;;;;;;;12.20;5.00;;;;;;;;;;5033096;28;20405;-45
2023/07/21 11:10:00;;;;;;;8.10;5.77;;;;;;;;;;5051875;28;20425;-45
2023/07/21 11:12:26;;;;;;;21.43;5.60;;;;;;;;;;5051922;28;20961;-44
2023/07/21 11:14:55;;;;;;;7.00;6.30;;;;;;;;;;5051601;28;20409;-48
2023/07/21 11:17:21;;;;;;;6.07;5.47;;;;;;;;;;5051969;28;20495;-45
2023/07/21 11:19:47;;;;;;;7.63;4.90;;;;;;;;;;5051683;28;20475;-44
2023/07/21 11:22:13;;;;;;;4.50;4.20;;;;;;;;;;5051812;28;20452;-45
2023/07/21 11:24:39;;;;;;;71.13;7.77;;;;;;;;;;5051521;28;20460;-45
2023/07/21 11:27:06;;;;;;;4.13;3.83;;;;;;;;;;5051633;28;20404;-44
2023/07/21 11:29:32;;;;;;;4.70;4.40;;;;;;;;;;5051512;28;20516;-44
2023/07/21 11:31:58;;;;;;;4.60;4.30;;;;;;;;;;5051489;28;20413;-44
2023/07/21 11:34:26;;;;;;;4.33;4.03;;;;;;;;;;5051492;28;20996;-44
2023/07/21 11:36:54;;;;;;;4.70;4.40;;;;;;;;;;5052152;28;20780;-45
2023/07/21 11:39:21;;;;;;;5.37;5.00;;;;;;;;;;5051511;28;20464;-46
2023/07/21 11:41:48;;;;;;;6.00;4.73;;;;;;;;;;5051377;28;20413;-48
2023/07/21 11:44:27;;;;;;;5.20;4.83;;;;;;;;;;5051251;28;20496;-47
2023/07/21 11:46:56;;;;;;;65.97;7.90;;;;;;;;;;5055053;28;20503;-44
2023/07/21 11:49:23;;;;;;;4.73;4.43;;;;;;;;;;5055716;28;20519;-48
2023/07/21 11:51:52;;;;;;;4.97;4.57;;;;;;;;;;5055589;28;20405;-46
2023/07/21 11:54:22;;;;;;;4.50;4.10;;;;;;;;;;5055471;28;20420;-45
2023/07/21 11:56:49;;;;;;;4.20;3.87;;;;;;;;;;5055467;28;20413;-44
2023/07/21 11:59:15;;;;;;;5.10;4.43;;;;;;;;;;5055474;28;20531;-45
2023/07/21 12:01:41;;;;;;;3.73;3.53;;;;;;;;;;5055567;28;20424;-44
2023/07/21 12:04:08;;;;;;;4.00;3.80;;;;;;;;;;5055276;28;20884;-44
2023/07/21 12:06:34;;;;;;;4.40;4.10;;;;;;;;;;5055352;28;20425;-47
2023/07/21 12:09:00;;;;;;;3.73;3.43;;;;;;;;;;5055258;28;20425;-48
2023/07/21 12:11:26;;;;;;;6.13;3.73;;;;;;;;;;5055050;28;20405;-48
2023/07/21 12:13:52;;;;;;;6.20;3.30;;;;;;;;;;5038236;28;20410;-45
2023/07/21 12:16:18;;;;;;;3.53;3.13;;;;;;;;;;5049080;28;20455;-44
2023/07/21 12:18:44;;;;;;;5.63;3.30;;;;;;;;;;5055100;28;20468;-44
2023/07/21 12:21:12;;;;;;;3.03;2.87;;;;;;;;;;5054914;28;20421;-45
2023/07/21 12:23:38;;;;;;;2.90;2.80;;;;;;;;;;5055322;28;20413;-45
2023/07/21 12:26:04;;;;;;;3.83;3.13;;;;;;;;;;5054922;28;20408;-45
2023/07/21 12:28:30;;;;;;;3.37;2.70;;;;;;;;;;5054936;28;20436;-46
2023/07/21 12:30:56;;;;;;;2.30;2.20;;;;;;;;;;5054646;28;20504;-44
2023/07/21 12:33:22;;;;;;;5.40;2.80;;;;;;;;;;5054832;28;20413;-44
2023/07/21 12:35:48;;;;;;;119.80;13.20;;;;;;;;;;5054747;28;20417;-45
2023/07/21 12:38:13;;;;;;;2.67;2.00;;;;;;;;;;5054484;28;20424;-45
2023/07/21 12:40:40;;;;;;;2.97;2.40;;;;;;;;;;5054473;28;20508;-45
2023/07/21 12:43:06;;;;;;;2.63;2.50;;;;;;;;;;5054210;28;20424;-44
2023/07/21 12:45:32;;;;;;;4.73;2.97;;;;;;;;;;5054451;28;20461;-46
2023/07/21 12:47:58;;;;;;;2.80;2.60;;;;;;;;;;5054686;28;20401;-46
2023/07/21 12:50:24;;;;;;;3.53;2.87;;;;;;;;;;5054109;28;20487;-45
2023/07/21 12:52:50;;;;;;;8.60;3.03;;;;;;;;;;5054296;28;20409;-46
2023/07/21 12:55:16;;;;;;;21.57;4.10;;;;;;;;;;5051289;28;20466;-47
2023/07/21 12:57:43;;;;;;;2.70;2.47;;;;;;;;;;5053948;28;20417;-47
2023/07/21 13:00:13;;;;;;;3.40;2.97;;;;;;;;;;5054027;28;20440;-47
2023/07/21 13:02:38;;;;;;;2.33;2.20;;;;;;;;;;5043143;28;20421;-44
2023/07/21 13:05:06;;;;;;;4.70;2.63;;;;;;;;;;5049480;28;20453;-44
2023/07/21 13:07:32;;;;;;;2.17;1.97;;;;;;;;;;5053366;28;20409;-45
2023/07/21 13:09:58;;;;;;;21.37;4.47;;;;;;;;;;5054114;28;20430;-45
2023/07/21 13:12:24;;;;;;;2.30;2.20;;;;;;;;;;5054139;28;20405;-47
2023/07/21 13:14:50;;;;;;;7.60;2.67;;;;;;;;;;5053956;28;20409;-46
2023/07/21 13:17:16;;;;;;;3.13;2.93;;;;;;;;;;5054024;28;20928;-47
2023/07/21 13:19:42;;;;;;;2.70;2.60;;;;;;;;;;5052606;28;20465;-45
2023/07/21 13:22:08;;;;;;;4.00;2.90;;;;;;;;;;5052961;28;20421;-45
2023/07/21 13:24:34;;;;;;;4.90;2.63;;;;;;;;;;5053846;28;20863;-45
2023/07/21 13:27:00;;;;;;;2.60;2.40;;;;;;;;;;5053992;28;20908;-44
2023/07/21 13:29:26;;;;;;;86.07;8.10;;;;;;;;;;5053802;28;20485;-44
2023/07/21 13:31:52;;;;;;;2.93;2.73;;;;;;;;;;5053623;28;20411;-45
2023/07/21 13:34:18;;;;;;;2.77;2.57;;;;;;;;;;5053674;28;20455;-46
2023/07/21 13:36:45;;;;;;;6.37;2.63;;;;;;;;;;5053522;28;20533;-47
2023/07/21 13:39:12;;;;;;;5.03;3.00;;;;;;;;;;5053604;28;20473;-44
2023/07/21 13:41:38;;;;;;;5.13;2.63;;;;;;;;;;5053422;28;20412;-44
2023/07/21 13:44:04;;;;;;;4.53;3.07;;;;;;;;;;5053604;28;20449;-45
2023/07/21 13:46:30;;;;;;;25.07;3.60;;;;;;;;;;5053486;28;20414;-44
2023/07/21 13:48:56;;;;;;;4.83;2.67;;;;;;;;;;5053424;28;20507;-45
2023/07/21 13:51:23;;;;;;;5.23;2.80;;;;;;;;;;5053187;28;20428;-44
2023/07/21 13:53:49;;;;;;;26.83;6.43;;;;;;;;;;5053312;28;20401;-45
2023/07/21 13:56:15;;;;;;;7.50;3.70;;;;;;;;;;5053411;28;20406;-44
2023/07/21 13:58:42;;;;;;;11.90;4.80;;;;;;;;;;5053640;28;20516;-44
2023/07/21 14:01:08;;;;;;;13.63;6.37;;;;;;;;;;5053130;28;20801;-44
2023/07/21 14:03:34;;;;;;;9.57;6.67;;;;;;;;;;5053110;28;20531;-44
2023/07/21 14:06:00;;;;;;;7.90;7.30;;;;;;;;;;5053290;28;20439;-44
2023/07/21 14:08:26;;;;;;;7.50;6.80;;;;;;;;;;5052201;28;20531;-44
2023/07/21 14:10:52;;;;;;;9.70;8.00;;;;;;;;;;5053033;28;20424;-44
2023/07/21 14:13:18;;;;;;;10.17;8.40;;;;;;;;;;5053616;28;20436;-44
2023/07/21 14:15:44;;;;;;;9.90;9.03;;;;;;;;;;5052972;28;20425;-47
2023/07/21 14:18:11;;;;;;;10.73;9.67;;;;;;;;;;5052775;28;20408;-44
2023/07/21 14:20:38;;;;;;;11.10;10.10;;;;;;;;;;5052843;28;20399;-44
2023/07/21 14:23:04;;;;;;;11.50;10.37;;;;;;;;;;5052928;28;20487;-48
2023/07/21 14:25:30;;;;;;;11.23;10.23;;;;;;;;;;5052654;28;20509;-44
2023/07/21 14:27:56;;;;;;;11.70;10.60;;;;;;;;;;5039134;28;20832;-48
2023/07/21 14:30:23;;;;;;;17.87;10.43;;;;;;;;;;5043162;28;20437;-44
2023/07/21 14:32:49;;;;;;;10.53;9.57;;;;;;;;;;5053057;28;20414;-44
2023/07/21 14:35:17;;;;;;;12.03;11.00;;;;;;;;;;5052612;28;20420;-44